Claremont, North Carolina
Current Conditions -  °F | °C
As of 11:35 AM on Monday 26 Jan 2015 (Local Time) from KSVH Reporting Station
Overcast Overcast  
Wind Chill: 39°   Ceiling: 9000
Heat Index: 43°   Visibility: 10mi
Dew Point: 39°   Wind: 6mph
Humidity: 87%   Direction: 360°N
Pressure: 29.65"   Gusts: NA
Location:  35.71°N, 81.15°W
Report Text: KSVH 261635Z AUTO 36005KT 10SM SCT045 SCT060 OVC090 06/04 A2965 RMK AO2 T00590039
Loading
Personal Weather Stations






























Interactive Weather Map New forecast layout! Learn more

10-Day Weather Forecast

Advertisements
Track Severe Weather on mobile